Time;durP1;ratioP1;P1;durP2;ratioP2;P2;SDS_P1;SDS_P2;PMS_P1;PMS_P2;Temp;Humidity;BMP_temperature;BMP_pressure;BME280_temperature;BME280_humidity;BME280_pressure;Samples;Min_cycle;Max_cycle;Signal;HPM_P1;HPM_P2
2023/06/25 00:01:57;;;;;;;15.90;7.80;;;12.40;43.30;;;;;;5012089;28;20072;-60
2023/06/25 00:04:23;;;;;;;15.98;8.77;;;12.30;38.60;;;;;;5011857;28;20072;-60
2023/06/25 00:06:48;;;;;;;18.75;8.27;;;12.30;35.00;;;;;;5010327;28;20026;-60
2023/06/25 00:09:14;;;;;;;25.23;9.70;;;12.30;42.70;;;;;;4992176;28;20030;-60
2023/06/25 00:11:40;;;;;;;18.33;8.43;;;12.30;50.00;;;;;;4992292;28;20031;-60
2023/06/25 00:14:05;;;;;;;16.92;8.30;;;12.30;49.90;;;;;;4992313;28;20109;-61
2023/06/25 00:16:33;;;;;;;14.60;7.35;;;12.30;54.60;;;;;;4992147;28;20029;-59
2023/06/25 00:19:00;;;;;;;14.63;7.35;;;12.30;33.10;;;;;;4992190;28;20169;-61
2023/06/25 00:21:26;;;;;;;16.90;7.82;;;12.20;35.80;;;;;;4992131;28;20023;-61
2023/06/25 00:23:52;;;;;;;14.10;7.65;;;12.10;39.60;;;;;;4992296;28;20517;-61
2023/06/25 00:26:17;;;;;;;13.02;8.40;;;12.10;50.60;;;;;;4992009;28;20165;-60
2023/06/25 00:28:43;;;;;;;13.48;7.35;;;12.10;48.00;;;;;;4991979;28;20121;-60
2023/06/25 00:31:09;;;;;;;20.20;7.28;;;12.10;51.80;;;;;;4991035;28;20157;-60
2023/06/25 00:33:35;;;;;;;25.77;10.50;;;12.10;46.80;;;;;;4993343;28;20524;-60
2023/06/25 00:36:06;;;;;;;17.40;7.65;;;12.00;46.10;;;;;;5010862;28;20109;-60
2023/06/25 00:38:33;;;;;;;21.15;7.95;;;12.00;40.20;;;;;;5015117;28;20037;-60
2023/06/25 00:40:59;;;;;;;17.15;7.28;;;12.00;43.90;;;;;;5015390;28;20030;-60
2023/06/25 00:43:24;;;;;;;21.13;8.00;;;12.00;42.40;;;;;;5015096;28;20041;-60
2023/06/25 00:45:50;;;;;;;24.02;7.47;;;11.90;39.70;;;;;;5015252;28;20116;-60
2023/06/25 00:48:15;;;;;;;22.73;8.02;;;11.90;43.80;;;;;;5015267;28;20029;-60
2023/06/25 00:50:42;;;;;;;30.85;8.10;;;11.90;45.80;;;;;;5015232;28;20041;-60
2023/06/25 00:53:09;;;;;;;13.32;8.63;;;11.90;50.20;;;;;;5015351;28;20131;-59
2023/06/25 00:55:35;;;;;;;14.05;7.18;;;11.90;46.00;;;;;;5015076;28;20022;-60
2023/06/25 00:58:01;;;;;;;18.38;8.10;;;11.90;49.50;;;;;;5015264;28;20105;-61
2023/06/25 01:00:28;;;;;;;9.45;7.85;;;11.80;37.90;;;;;;5015045;28;20112;-61
2023/06/25 01:03:02;;;;;;;18.90;8.52;;;11.80;49.90;;;;;;5015335;28;20436;-60
2023/06/25 01:05:44;;;;;;;15.48;8.57;;;11.70;36.90;;;;;;5014805;28;20044;-59
2023/06/25 01:08:11;;;;;;;26.15;7.85;;;11.60;34.20;;;;;;5008305;28;20029;-60
2023/06/25 01:10:37;;;;;;;16.45;8.70;;;11.60;48.70;;;;;;5014570;28;20079;-60
2023/06/25 01:13:04;;;;;;;16.88;8.57;;;11.50;49.10;;;;;;5013505;28;20113;-61
2023/06/25 01:15:29;;;;;;;13.15;8.07;;;11.50;50.80;;;;;;5014606;28;20057;-60
2023/06/25 01:17:57;;;;;;;12.85;8.50;;;11.50;49.90;;;;;;5014817;28;20600;-60
2023/06/25 01:20:26;;;;;;;11.30;8.93;;;11.60;51.90;;;;;;5014741;28;20067;-60
2023/06/25 01:22:53;;;;;;;21.40;9.07;;;11.60;50.80;;;;;;5014833;28;20061;-60
2023/06/25 01:25:18;;;;;;;17.52;7.80;;;11.50;53.80;;;;;;5014502;28;20026;-60
2023/06/25 01:27:44;;;;;;;16.48;8.65;;;11.40;44.90;;;;;;5014840;28;20044;-60
2023/06/25 01:30:11;;;;;;;15.25;7.75;;;11.30;53.70;;;;;;5013038;28;20036;-61
2023/06/25 01:32:41;;;;;;;15.60;7.53;;;11.40;56.40;;;;;;5014498;28;20028;-60
2023/06/25 01:35:07;;;;;;;9.98;7.45;;;11.30;51.00;;;;;;5014379;28;20030;-60
2023/06/25 01:37:33;;;;;;;20.65;9.38;;;11.30;56.50;;;;;;5014285;28;20092;-60
2023/06/25 01:39:59;;;;;;;18.50;7.57;;;11.30;55.90;;;;;;5014417;28;20026;-60
2023/06/25 01:42:24;;;;;;;15.52;8.05;;;11.30;55.10;;;;;;5014037;28;20040;-60
2023/06/25 01:44:50;;;;;;;18.48;8.02;;;11.20;50.40;;;;;;5013299;28;20034;-60
2023/06/25 01:47:16;;;;;;;13.27;7.95;;;11.20;57.40;;;;;;5014185;28;20038;-60
2023/06/25 01:49:41;;;;;;;15.07;8.55;;;11.20;59.40;;;;;;5014249;28;20026;-59
2023/06/25 01:52:07;;;;;;;14.65;8.23;;;11.20;60.50;;;;;;4998677;28;20018;-61
2023/06/25 01:54:33;;;;;;;29.58;9.55;;;11.20;66.70;;;;;;5031292;28;20145;-60
2023/06/25 01:57:02;;;;;;;18.75;7.40;;;11.20;63.90;;;;;;5034181;28;20017;-60
2023/06/25 01:59:27;;;;;;;22.02;8.48;;;11.20;56.90;;;;;;5033777;28;20120;-61
2023/06/25 02:01:54;;;;;;;12.50;6.75;;;11.10;56.90;;;;;;5033910;28;20429;-60
2023/06/25 02:04:19;;;;;;;21.75;8.38;;;11.10;56.90;;;;;;5017548;28;20033;-59
2023/06/25 02:06:46;;;;;;;16.33;7.82;;;11.10;54.90;;;;;;5014081;28;20481;-60
2023/06/25 02:09:13;;;;;;;19.90;7.97;;;11.00;48.30;;;;;;5013706;28;20476;-60
2023/06/25 02:11:39;;;;;;;16.17;7.78;;;10.90;54.90;;;;;;5014001;28;20021;-59
2023/06/25 02:14:05;;;;;;;12.05;7.55;;;10.90;62.30;;;;;;5013932;28;20104;-60
2023/06/25 02:16:31;;;;;;;15.85;7.53;;;10.90;58.70;;;;;;5013519;28;20056;-60
2023/06/25 02:18:57;;;;;;;25.88;7.43;;;10.90;54.90;;;;;;5013660;28;20113;-60
2023/06/25 02:21:22;;;;;;;17.45;7.30;;;10.90;53.50;;;;;;5013726;28;20360;-60
2023/06/25 02:23:48;;;;;;;13.02;7.35;;;10.80;50.30;;;;;;5013404;28;20026;-60
2023/06/25 02:26:13;;;;;;;19.88;8.02;;;10.80;56.80;;;;;;5013122;28;20551;-60
2023/06/25 02:28:39;;;;;;;11.85;7.45;;;10.90;57.30;;;;;;5013391;28;20049;-61
2023/06/25 02:31:05;;;;;;;14.13;7.25;;;10.80;51.00;;;;;;5013355;28;20083;-60
2023/06/25 02:33:31;;;;;;;14.60;7.38;;;10.90;53.90;;;;;;5013232;28;20589;-60
2023/06/25 02:35:56;;;;;;;21.48;8.02;;;10.80;52.00;;;;;;5013152;28;20097;-59
2023/06/25 02:38:22;;;;;;;15.27;7.40;;;10.80;49.80;;;;;;5012790;28;20088;-60
2023/06/25 02:40:48;;;;;;;20.02;7.72;;;10.70;54.10;;;;;;5011506;28;20061;-60
2023/06/25 02:43:13;;;;;;;13.20;7.15;;;10.70;56.30;;;;;;5012931;28;20029;-60
2023/06/25 02:45:39;;;;;;;10.52;7.35;;;10.80;60.00;;;;;;5010840;28;20484;-60
2023/06/25 02:48:05;;;;;;;17.58;7.47;;;10.80;62.40;;;;;;5012890;28;20060;-60
2023/06/25 02:50:30;;;;;;;14.40;6.95;;;10.80;59.90;;;;;;5012692;28;20041;-59
2023/06/25 02:52:56;;;;;;;16.05;7.32;;;10.80;59.30;;;;;;5013014;28;20026;-60
2023/06/25 02:55:22;;;;;;;15.27;7.57;;;10.80;57.60;;;;;;5012862;28;20492;-60
2023/06/25 02:57:47;;;;;;;17.42;7.30;;;10.70;57.40;;;;;;5013124;28;20511;-60
2023/06/25 03:00:13;;;;;;;17.58;7.35;;;10.70;56.50;;;;;;5012899;28;20068;-59
2023/06/25 03:02:39;;;;;;;20.77;7.03;;;10.70;51.10;;;;;;5012827;28;20389;-60
2023/06/25 03:05:04;;;;;;;23.63;8.25;;;10.60;53.80;;;;;;5012900;28;20105;-60
2023/06/25 03:07:30;;;;;;;18.70;7.00;;;10.60;53.30;;;;;;5012475;28;20030;-60
2023/06/25 03:09:56;;;;;;;8.38;6.90;;;10.60;51.40;;;;;;5009125;28;20361;-60
2023/06/25 03:12:21;;;;;;;17.77;7.25;;;10.60;51.90;;;;;;5012620;28;20030;-60
2023/06/25 03:14:47;;;;;;;17.00;7.45;;;10.60;50.60;;;;;;5012228;28;20030;-60
2023/06/25 03:17:13;;;;;;;12.77;7.40;;;10.50;60.00;;;;;;5012376;28;20026;-60
2023/06/25 03:19:39;;;;;;;15.13;8.18;;;10.60;59.40;;;;;;5012333;28;20030;-60
2023/06/25 03:22:05;;;;;;;18.38;8.60;;;10.50;63.40;;;;;;5012649;28;20025;-60
2023/06/25 03:24:30;;;;;;;14.23;8.23;;;10.50;69.50;;;;;;5012359;28;20071;-60
2023/06/25 03:26:56;;;;;;;11.82;7.15;;;10.60;69.50;;;;;;5012624;28;20063;-60
2023/06/25 03:29:22;;;;;;;26.92;7.88;;;10.60;67.80;;;;;;5012177;28;20081;-60
2023/06/25 03:31:48;;;;;;;13.50;7.90;;;10.60;63.40;;;;;;5012386;28;20026;-60
2023/06/25 03:34:13;;;;;;;20.55;7.32;;;10.60;60.70;;;;;;5012092;28;20022;-60
2023/06/25 03:36:39;;;;;;;14.48;6.65;;;10.60;55.50;;;;;;5012378;28;20044;-60
2023/06/25 03:39:04;;;;;;;13.65;7.50;;;10.70;59.60;;;;;;5012230;28;20590;-60
2023/06/25 03:41:30;;;;;;;14.93;7.03;;;10.60;54.70;;;;;;5010694;28;20485;-60
2023/06/25 03:43:56;;;;;;;16.13;6.72;;;10.70;63.30;;;;;;5012042;28;20047;-60
2023/06/25 03:46:21;;;;;;;17.42;7.43;;;10.70;62.90;;;;;;5011672;28;20057;-60
2023/06/25 03:48:47;;;;;;;13.55;7.45;;;10.80;62.10;;;;;;5010826;28;20108;-60
2023/06/25 03:51:12;;;;;;;13.77;7.20;;;10.80;60.30;;;;;;5006823;28;20028;-60
2023/06/25 03:53:39;;;;;;;22.80;7.50;;;10.90;58.00;;;;;;4992508;28;20052;-60
2023/06/25 03:56:04;;;;;;;13.85;6.93;;;10.90;61.10;;;;;;4992583;28;20350;-61
2023/06/25 03:58:30;;;;;;;9.15;6.45;;;10.90;55.40;;;;;;4992317;28;20081;-61
2023/06/25 04:00:56;;;;;;;14.23;6.90;;;11.00;58.90;;;;;;4992595;28;20401;-60
2023/06/25 04:03:22;;;;;;;13.40;6.88;;;11.00;62.20;;;;;;4996065;28;20026;-60
2023/06/25 04:05:48;;;;;;;8.80;7.35;;;11.10;66.10;;;;;;5012009;28;20026;-60
2023/06/25 04:08:14;;;;;;;12.50;6.82;;;11.30;67.30;;;;;;5011333;28;20022;-60
2023/06/25 04:10:43;;;;;;;16.40;7.47;;;11.30;63.90;;;;;;5011865;28;20576;-61
2023/06/25 04:13:09;;;;;;;15.30;8.75;;;11.50;64.60;;;;;;5012048;28;20058;-60
2023/06/25 04:15:34;;;;;;;16.55;9.40;;;11.60;62.60;;;;;;5011775;28;20104;-61
2023/06/25 04:18:00;;;;;;;13.75;8.18;;;11.60;63.50;;;;;;5011914;28;20477;-61
2023/06/25 04:20:27;;;;;;;22.73;9.15;;;11.70;67.90;;;;;;5011866;28;20041;-60
2023/06/25 04:22:54;;;;;;;12.55;8.35;;;11.80;69.40;;;;;;5011736;28;20373;-60
2023/06/25 04:25:20;;;;;;;59.28;18.90;;;11.90;69.70;;;;;;5011540;28;20045;-60
2023/06/25 04:27:46;;;;;;;14.80;7.88;;;12.10;78.40;;;;;;5016463;28;20084;-61
2023/06/25 04:30:12;;;;;;;12.57;7.50;;;12.20;64.00;;;;;;5016061;28;20041;-60
2023/06/25 04:32:38;;;;;;;9.32;7.55;;;12.20;56.30;;;;;;5011843;28;20030;-59
2023/06/25 04:35:04;;;;;;;11.55;8.23;;;12.40;59.50;;;;;;5011639;28;20492;-60
2023/06/25 04:37:29;;;;;;;13.75;8.20;;;12.50;63.10;;;;;;5011019;28;20507;-60
2023/06/25 04:39:55;;;;;;;12.70;9.35;;;12.60;55.20;;;;;;5011497;28;20030;-60
2023/06/25 04:42:21;;;;;;;23.50;11.75;;;12.60;50.20;;;;;;5011278;28;20033;-61
2023/06/25 04:44:47;;;;;;;18.13;9.18;;;12.80;61.90;;;;;;5011326;28;20521;-60
2023/06/25 04:47:13;;;;;;;29.25;12.52;;;12.90;53.60;;;;;;5011125;28;20036;-60
2023/06/25 04:49:38;;;;;;;9.52;7.43;;;13.00;63.30;;;;;;5011312;28;20097;-60
2023/06/25 04:52:04;;;;;;;16.10;8.52;;;13.10;47.00;;;;;;5011286;28;20030;-59
2023/06/25 04:54:30;;;;;;;12.32;7.43;;;13.10;42.90;;;;;;5003419;28;20050;-60
2023/06/25 04:56:56;;;;;;;18.75;8.55;;;13.20;44.00;;;;;;5011463;28;20376;-60
2023/06/25 04:59:21;;;;;;;10.25;8.27;;;13.30;34.30;;;;;;5010901;28;20030;-61
2023/06/25 05:01:47;;;;;;;9.05;7.47;;;13.40;15.80;;;;;;5011652;28;20034;-60
2023/06/25 05:04:12;;;;;;;10.93;8.30;;;13.60;5.90;;;;;;5011382;28;20038;-60
2023/06/25 05:06:38;;;;;;;15.95;8.30;;;13.70;1.30;;;;;;5011215;28;20061;-60
2023/06/25 05:09:04;;;;;;;8.75;7.82;;;13.80;1.00;;;;;;5010775;28;20036;-60
2023/06/25 05:11:29;;;;;;;8.70;7.50;;;13.80;3.00;;;;;;5010602;28;20415;-60
2023/06/25 05:13:58;;;;;;;14.13;7.90;;;13.90;1.40;;;;;;5010741;28;20026;-61
2023/06/25 05:16:24;;;;;;;8.13;7.18;;;13.90;5.00;;;;;;5011282;28;20030;-60
2023/06/25 05:18:50;;;;;;;11.18;8.95;;;14.00;4.10;;;;;;5011128;28;20052;-60
2023/06/25 05:21:15;;;;;;;9.63;7.38;;;14.10;1.00;;;;;;5013162;28;20096;-61
2023/06/25 05:23:56;;;;;;;13.75;9.25;;;14.10;1.00;;;;;;5014598;28;20092;-59
2023/06/25 05:26:21;;;;;;;12.25;7.57;;;14.20;1.00;;;;;;5014323;28;20061;-61
2023/06/25 05:28:47;;;;;;;9.82;8.43;;;14.30;1.00;;;;;;5014405;28;20578;-60
2023/06/25 05:31:13;;;;;;;14.48;9.20;;;14.50;1.90;;;;;;5014368;28;20037;-60
2023/06/25 05:33:38;;;;;;;11.82;8.68;;;14.60;3.00;;;;;;5014518;28;20034;-60
2023/06/25 05:36:04;;;;;;;9.82;7.90;;;14.80;2.00;;;;;;5014601;28;20018;-60
2023/06/25 05:38:30;;;;;;;10.82;8.63;;;14.90;1.00;;;;;;5014012;28;20028;-60
2023/06/25 05:40:55;;;;;;;8.75;7.78;;;15.00;1.00;;;;;;5014235;28;20552;-60
2023/06/25 05:43:21;;;;;;;11.40;7.90;;;15.10;1.00;;;;;;5013976;28;20033;-60
2023/06/25 05:45:47;;;;;;;15.68;9.00;;;15.30;1.00;;;;;;5014353;28;20026;-60
2023/06/25 05:48:12;;;;;;;14.95;7.93;;;15.50;1.00;;;;;;5014166;28;20449;-61
2023/06/25 05:50:38;;;;;;;11.60;8.32;;;15.70;1.00;;;;;;5014126;28;20034;-61
2023/06/25 05:53:04;;;;;;;9.77;8.15;;;15.90;1.00;;;;;;5014034;28;20379;-61
2023/06/25 05:55:30;;;;;;;11.55;8.88;;;16.00;1.00;;;;;;5014298;28;20041;-60
2023/06/25 05:57:55;;;;;;;8.20;7.30;;;16.10;1.00;;;;;;5014147;28;20022;-60
2023/06/25 06:00:23;;;;;;;10.10;7.90;;;16.20;1.00;;;;;;5013956;28;20032;-60
2023/06/25 06:02:48;;;;;;;11.13;8.75;;;16.40;1.00;;;;;;4998189;28;20105;-61
2023/06/25 06:05:14;;;;;;;16.92;10.02;;;16.40;1.00;;;;;;4994329;28;20476;-60
2023/06/25 06:07:40;;;;;;;9.82;8.63;;;16.60;1.00;;;;;;4994553;28;20604;-60
2023/06/25 06:10:09;;;;;;;12.02;7.95;;;16.80;1.00;;;;;;4994380;28;20037;-59
2023/06/25 06:12:34;;;;;;;8.52;7.03;;;16.90;1.00;;;;;;4994224;28;20122;-60
2023/06/25 06:15:00;;;;;;;13.55;8.80;;;17.10;1.00;;;;;;4994236;28;20354;-60
2023/06/25 06:17:26;;;;;;;18.63;9.32;;;17.30;1.00;;;;;;4994167;28;20529;-59
2023/06/25 06:19:51;;;;;;;12.10;8.57;;;17.50;1.00;;;;;;4994249;28;20485;-60
2023/06/25 06:22:17;;;;;;;11.63;8.70;;;17.60;1.00;;;;;;4993982;28;20026;-60
2023/06/25 06:24:43;;;;;;;14.05;9.27;;;17.80;99.90;;;;;;4994003;28;20348;-60
2023/06/25 06:27:09;;;;;;;10.57;9.35;;;18.00;99.90;;;;;;4994140;28;20042;-59
2023/06/25 06:29:34;;;;;;;15.55;10.43;;;18.10;54.20;;;;;;5009502;28;20040;-60
2023/06/25 06:32:00;;;;;;;13.38;9.73;;;18.20;99.90;;;;;;5012979;28;20096;-60
2023/06/25 06:34:26;;;;;;;11.48;8.98;;;18.30;62.90;;;;;;5010887;28;20053;-59
2023/06/25 06:36:51;;;;;;;13.02;9.00;;;18.40;96.80;;;;;;5013280;28;20061;-60
2023/06/25 06:39:17;;;;;;;10.50;8.98;;;18.50;73.20;;;;;;5012833;28;20037;-60
2023/06/25 06:41:43;;;;;;;13.85;9.52;;;18.70;8.10;;;;;;5011817;28;20057;-60
2023/06/25 06:44:18;;;;;;;18.55;9.80;;;18.80;1.00;;;;;;5010935;28;20056;-60
2023/06/25 06:46:45;;;;;;;10.13;8.48;;;18.90;1.00;;;;;;4993577;28;20132;-60
2023/06/25 06:49:11;;;;;;;12.32;9.32;;;18.90;1.00;;;;;;5007877;28;20029;-59
2023/06/25 06:51:38;;;;;;;9.77;8.50;;;19.00;99.90;;;;;;5013329;28;20022;-60
2023/06/25 06:54:06;;;;;;;11.98;9.32;;;19.00;99.90;;;;;;5012142;28;20042;-60
2023/06/25 06:56:32;;;;;;;14.38;9.00;;;19.20;99.90;;;;;;5010371;28;20105;-59
2023/06/25 06:58:58;;;;;;;16.58;8.48;;;19.30;99.90;;;;;;5011864;28;20029;-59
2023/06/25 07:01:25;;;;;;;13.45;9.18;;;19.40;99.90;;;;;;5011464;28;20518;-60
2023/06/25 07:03:50;;;;;;;24.75;9.68;;;19.50;99.90;;;;;;5011678;28;20049;-60
2023/06/25 07:06:16;;;;;;;13.63;9.38;;;19.70;99.90;;;;;;5011611;28;20025;-59
2023/06/25 07:08:41;;;;;;;12.60;9.38;;;19.70;63.40;;;;;;5012049;28;20044;-60
2023/06/25 07:11:07;;;;;;;11.60;9.55;;;19.80;1.00;;;;;;5012729;28;20057;-59
2023/06/25 07:13:33;;;;;;;15.50;8.77;;;19.80;1.00;;;;;;5012248;28;20112;-59
2023/06/25 07:15:58;;;;;;;14.77;9.52;;;19.90;1.00;;;;;;5012755;28;20026;-60
2023/06/25 07:18:24;;;;;;;13.43;9.73;;;19.90;99.90;;;;;;5012612;28;20041;-61
2023/06/25 07:20:50;;;;;;;13.57;9.45;;;19.90;50.10;;;;;;5012563;28;20049;-60
2023/06/25 07:23:16;;;;;;;11.15;9.02;;;19.90;99.90;;;;;;5012442;28;20397;-60
2023/06/25 07:25:42;;;;;;;14.70;8.45;;;20.10;99.90;;;;;;5012287;28;20018;-59
2023/06/25 07:28:10;;;;;;;13.50;8.55;;;20.30;99.90;;;;;;5010926;28;20100;-59
2023/06/25 07:30:37;;;;;;;15.35;8.68;;;20.40;99.90;;;;;;5011166;28;20065;-60
2023/06/25 07:33:03;;;;;;;9.82;8.00;;;20.30;1.00;;;;;;5019282;28;20025;-60
2023/06/25 07:35:29;;;;;;;13.93;8.15;;;20.40;32.00;;;;;;5011187;28;20022;-60
2023/06/25 07:37:54;;;;;;;13.02;8.25;;;20.50;1.00;;;;;;5011884;28;20030;-59
2023/06/25 07:40:20;;;;;;;11.38;8.68;;;20.60;99.90;;;;;;5011760;28;20038;-60
2023/06/25 07:42:46;;;;;;;8.77;7.70;;;20.70;99.90;;;;;;5011628;28;20449;-57
2023/06/25 07:45:11;;;;;;;15.18;7.97;;;20.60;99.90;;;;;;5012010;28;20508;-59
2023/06/25 07:47:37;;;;;;;9.45;7.32;;;20.60;91.60;;;;;;5010651;28;20076;-59
2023/06/25 07:50:03;;;;;;;9.15;8.18;;;20.60;21.10;;;;;;5010637;28;20116;-59
2023/06/25 07:52:29;;;;;;;15.68;8.27;;;20.80;99.90;;;;;;5010620;28;20030;-59
2023/06/25 07:54:54;;;;;;;12.23;7.90;;;20.90;99.90;;;;;;5010681;28;20406;-59
2023/06/25 07:57:20;;;;;;;10.63;7.95;;;20.90;18.60;;;;;;5010585;28;20034;-59
2023/06/25 07:59:46;;;;;;;11.75;7.95;;;21.00;98.10;;;;;;5016280;28;20034;-59
2023/06/25 08:02:12;;;;;;;17.65;8.88;;;21.20;99.90;;;;;;5023022;28;20036;-60
2023/06/25 08:04:38;;;;;;;16.52;7.95;;;21.30;99.90;;;;;;5031245;28;20037;-59
2023/06/25 08:07:04;;;;;;;10.02;7.43;;;21.40;1.00;;;;;;5031602;28;20061;-60
2023/06/25 08:09:29;;;;;;;11.93;7.93;;;21.50;15.40;;;;;;5031096;28;20659;-59
2023/06/25 08:11:55;;;;;;;10.05;8.18;;;21.40;99.90;;;;;;5019876;28;20150;-60
2023/06/25 08:14:20;;;;;;;14.85;9.38;;;21.40;1.00;;;;;;5011917;28;20026;-60
2023/06/25 08:16:46;;;;;;;19.45;9.65;;;21.50;1.00;;;;;;5011494;28;20033;-59
2023/06/25 08:19:12;;;;;;;19.90;10.25;;;21.60;1.00;;;;;;5011588;28;20041;-60
2023/06/25 08:21:37;;;;;;;13.38;9.15;;;21.60;99.90;;;;;;5011607;28;20081;-60
2023/06/25 08:24:03;;;;;;;9.05;8.05;;;21.60;99.90;;;;;;5011935;28;20465;-59
2023/06/25 08:26:29;;;;;;;13.80;8.20;;;21.90;99.90;;;;;;5011576;28;20378;-60
2023/06/25 08:28:55;;;;;;;16.27;8.52;;;22.10;1.00;;;;;;5011595;28;20038;-59
2023/06/25 08:31:21;;;;;;;14.32;7.57;;;22.20;1.00;;;;;;5011413;28;20022;-60
2023/06/25 08:33:47;;;;;;;12.43;9.00;;;22.30;99.90;;;;;;5011709;28;20022;-60
2023/06/25 08:36:12;;;;;;;11.57;7.82;;;22.40;18.80;;;;;;5011491;28;20026;-59
2023/06/25 08:38:38;;;;;;;7.93;6.70;;;22.60;25.20;;;;;;5011731;28;20022;-59
2023/06/25 08:41:04;;;;;;;10.40;8.18;;;22.50;1.00;;;;;;5011596;28;20026;-60
2023/06/25 08:43:29;;;;;;;12.40;7.75;;;22.70;1.00;;;;;;5011397;28;20539;-60
2023/06/25 08:45:55;;;;;;;11.35;8.30;;;22.90;1.00;;;;;;5011393;28;20022;-60
2023/06/25 08:48:23;;;;;;;13.48;8.93;;;22.50;1.00;;;;;;5011303;28;20562;-59
2023/06/25 08:50:56;;;;;;;10.85;8.80;;;22.50;1.00;;;;;;5011421;28;20029;-59
2023/06/25 08:53:25;;;;;;;10.73;8.05;;;22.70;1.00;;;;;;5011219;28;20358;-59
2023/06/25 08:55:53;;;;;;;11.90;8.30;;;22.70;99.90;;;;;;5014702;28;20121;-59
2023/06/25 08:58:21;;;;;;;10.60;8.70;;;22.80;99.90;;;;;;5015255;28;20028;-60
2023/06/25 09:00:46;;;;;;;9.07;7.78;;;23.10;99.90;;;;;;5014963;28;20030;-59
2023/06/25 09:03:12;;;;;;;9.63;7.88;;;23.10;99.90;;;;;;5015141;28;20021;-60
2023/06/25 09:05:38;;;;;;;9.02;7.35;;;23.30;99.90;;;;;;5015155;28;20102;-59
2023/06/25 09:08:04;;;;;;;10.25;7.68;;;23.50;99.90;;;;;;5015094;28;20053;-59
2023/06/25 09:10:31;;;;;;;8.85;7.85;;;23.50;91.60;;;;;;5014889;28;20034;-60
2023/06/25 09:13:00;;;;;;;12.65;7.00;;;23.40;82.10;;;;;;5014468;28;20372;-58
2023/06/25 09:15:26;;;;;;;13.98;7.68;;;23.30;52.40;;;;;;5013189;28;20116;-59
2023/06/25 09:17:56;;;;;;;9.50;7.93;;;23.60;29.70;;;;;;5013811;28;20560;-60
2023/06/25 09:20:23;;;;;;;9.70;7.65;;;23.80;1.00;;;;;;5014037;28;20108;-59
2023/06/25 09:22:56;;;;;;;15.00;6.93;;;23.90;30.50;;;;;;5014606;28;20087;-58
2023/06/25 09:25:28;;;;;;;10.93;7.35;;;24.00;42.10;;;;;;5014527;28;20385;-59
2023/06/25 09:27:55;;;;;;;9.55;8.18;;;24.30;1.00;;;;;;5014213;28;20472;-58
2023/06/25 09:30:23;;;;;;;14.20;7.25;;;23.90;1.00;;;;;;5013941;28;20377;-58
2023/06/25 09:32:50;;;;;;;12.35;7.18;;;24.30;1.00;;;;;;5014388;28;20585;-58
2023/06/25 09:35:25;;;;;;;8.15;6.70;;;24.40;1.00;;;;;;5014235;28;20076;-59
2023/06/25 09:37:51;;;;;;;9.85;7.15;;;24.30;1.00;;;;;;5013348;28;20033;-59
2023/06/25 09:40:17;;;;;;;7.53;6.55;;;24.40;99.90;;;;;;5011340;28;20037;-60
2023/06/25 09:42:44;;;;;;;8.35;7.38;;;24.60;99.90;;;;;;5012655;28;20030;-59
2023/06/25 09:45:17;;;;;;;7.68;6.82;;;24.50;99.90;;;;;;5013157;28;20364;-58
2023/06/25 09:47:45;;;;;;;9.70;6.32;;;24.80;99.90;;;;;;5012586;28;20060;-57
2023/06/25 09:50:24;;;;;;;7.72;6.65;;;24.90;99.90;;;;;;5011522;28;20044;-57
2023/06/25 09:52:58;;;;;;;11.27;6.72;;;25.00;99.90;;;;;;5012911;28;20033;-59
2023/06/25 09:55:26;;;;;;;8.80;7.25;;;25.10;99.90;;;;;;5013949;28;20368;-59
2023/06/25 09:57:53;;;;;;;10.07;7.05;;;25.20;99.90;;;;;;5013734;28;20026;-55
2023/06/25 10:00:20;;;;;;;10.02;6.90;;;25.40;99.90;;;;;;5013717;28;20108;-58
2023/06/25 10:02:46;;;;;;;7.88;7.13;;;25.60;99.90;;;;;;5013694;28;20026;-59
2023/06/25 10:05:12;;;;;;;9.38;6.88;;;25.40;99.90;;;;;;5013689;28;20056;-60
2023/06/25 10:07:38;;;;;;;8.75;6.53;;;25.40;99.90;;;;;;5012887;28;20481;-59
2023/06/25 10:10:05;;;;;;;9.70;7.72;;;25.50;99.90;;;;;;5013851;28;20030;-57
2023/06/25 10:12:36;;;;;;;10.40;7.60;;;25.50;99.90;;;;;;5012286;28;21451;-59
2023/06/25 10:15:04;;;;;;;9.45;6.65;;;25.70;99.90;;;;;;5013812;28;20018;-59
2023/06/25 10:17:29;;;;;;;10.25;7.97;;;26.00;99.90;;;;;;5012615;28;20026;-58
2023/06/25 10:19:57;;;;;;;8.82;6.88;;;26.20;99.90;;;;;;5010636;28;20092;-57
2023/06/25 10:22:24;;;;;;;10.05;7.13;;;26.20;99.90;;;;;;5008937;28;20120;-59
